Time;durP1;ratioP1;P1;durP2;ratioP2;P2;SDS_P1;SDS_P2;PMS_P1;PMS_P2;Temp;Humidity;BMP_temperature;BMP_pressure;BME280_temperature;BME280_humidity;BME280_pressure;Samples;Min_cycle;Max_cycle;Signal;HPM_P1;HPM_P2
2022/04/23 00:02:00;;;;;;;16.67;15.13;;;;;;;11.60;88.54;98786.72;5025893;28;20192;-56
2022/04/23 00:04:25;;;;;;;15.93;14.43;;;;;;;11.55;88.90;98794.66;5022768;28;20206;-57
2022/04/23 00:06:50;;;;;;;16.37;14.97;;;;;;;11.52;89.08;98784.41;5025866;28;20187;-57
2022/04/23 00:09:16;;;;;;;16.73;15.23;;;;;;;11.52;89.30;98789.59;5019613;28;20202;-56
2022/04/23 00:11:41;;;;;;;16.73;15.23;;;;;;;11.54;89.20;98789.53;5029837;28;20668;-56
2022/04/23 00:14:09;;;;;;;15.03;13.77;;;;;;;11.44;89.94;98789.00;5027789;28;20653;-57
2022/04/23 00:16:35;;;;;;;17.07;15.50;;;;;;;11.44;90.26;98786.41;5019138;28;20179;-57
2022/04/23 00:19:00;;;;;;;16.83;15.30;;;;;;;11.42;90.32;98781.31;5020151;28;20187;-56
2022/04/23 00:21:26;;;;;;;16.93;15.43;;;;;;;11.43;90.29;98782.13;5016249;28;20211;-56
2022/04/23 00:23:51;;;;;;;17.27;15.67;;;;;;;11.43;90.22;98782.13;5025465;28;20237;-57
2022/04/23 00:26:17;;;;;;;17.33;15.87;;;;;;;11.40;90.51;98790.88;5024372;28;20199;-57
2022/04/23 00:28:42;;;;;;;16.50;14.97;;;;;;;11.37;90.18;98790.97;5028453;28;20289;-58
2022/04/23 00:31:08;;;;;;;17.07;15.43;;;;;;;11.35;90.00;98794.53;5020711;28;20202;-57
2022/04/23 00:33:37;;;;;;;17.03;15.60;;;;;;;11.32;90.21;98805.00;5014077;28;20211;-58
2022/04/23 00:36:04;;;;;;;18.30;16.77;;;;;;;11.24;90.76;98795.78;5020592;28;20591;-57
2022/04/23 00:38:30;;;;;;;18.40;16.70;;;;;;;11.32;90.43;98792.06;5021447;28;20724;-57
2022/04/23 00:40:55;;;;;;;17.53;15.93;;;;;;;11.25;90.61;98787.13;5013875;28;20216;-57
2022/04/23 00:43:29;;;;;;;18.00;16.40;;;;;;;11.21;90.89;98790.69;5027146;28;20210;-56
2022/04/23 00:45:55;;;;;;;18.93;17.23;;;;;;;11.18;91.22;98782.22;5023769;28;20247;-59
2022/04/23 00:48:21;;;;;;;19.20;17.40;;;;;;;11.19;91.08;98784.72;5022580;28;20294;-56
2022/04/23 00:50:49;;;;;;;18.33;16.70;;;;;;;11.12;91.42;98791.88;5018480;28;20566;-58
2022/04/23 00:53:15;;;;;;;18.47;16.77;;;;;;;11.11;91.56;98782.41;5031198;28;20249;-58
2022/04/23 00:55:41;;;;;;;19.97;17.43;;;;;;;11.10;91.62;98777.31;5027056;28;20194;-57
2022/04/23 00:58:07;;;;;;;18.13;16.43;;;;;;;11.09;91.68;98767.84;5022438;28;20279;-57
2022/04/23 01:00:33;;;;;;;18.70;17.20;;;;;;;11.07;91.63;98770.47;5017440;28;20675;-57
2022/04/23 01:02:58;;;;;;;18.57;16.87;;;;;;;11.06;91.57;98773.13;5021993;28;20254;-58
2022/04/23 01:05:24;;;;;;;20.00;18.10;;;;;;;11.09;91.76;98778.19;5025502;28;20197;-58
2022/04/23 01:07:51;;;;;;;18.77;17.07;;;;;;;11.06;91.93;98768.78;5026511;28;20898;-57
2022/04/23 01:10:17;;;;;;;19.07;17.47;;;;;;;11.07;91.55;98772.22;5027873;28;20333;-57
2022/04/23 01:12:45;;;;;;;19.20;17.50;;;;;;;11.05;92.02;98768.84;5023115;28;20198;-58
2022/04/23 01:15:13;;;;;;;19.63;17.93;;;;;;;11.06;91.82;98766.19;5024141;28;20188;-58
2022/04/23 01:17:40;;;;;;;19.03;17.33;;;;;;;11.06;91.83;98766.19;5030955;28;20187;-57
2022/04/23 01:20:09;;;;;;;18.77;17.07;;;;;;;11.04;91.99;98761.97;5014510;28;20299;-57
2022/04/23 01:22:37;;;;;;;19.33;17.63;;;;;;;11.03;92.03;98765.47;5030440;28;20578;-56
2022/04/23 01:25:05;;;;;;;19.53;17.73;;;;;;;10.92;92.92;98756.34;5021789;28;20188;-57
2022/04/23 01:27:32;;;;;;;19.13;17.43;;;;;;;10.90;92.74;98758.13;5016668;28;20274;-56
2022/04/23 01:29:58;;;;;;;20.13;18.33;;;;;;;10.88;92.80;98765.09;5026261;28;20295;-58
2022/04/23 01:32:23;;;;;;;18.93;17.07;;;;;;;10.88;93.04;98764.25;5032372;28;20275;-56
2022/04/23 01:34:49;;;;;;;19.67;17.83;;;;;;;10.87;92.93;98766.00;5030320;28;20234;-57
2022/04/23 01:37:17;;;;;;;19.90;18.10;;;;;;;10.92;92.61;98774.44;5027815;28;20198;-57
2022/04/23 01:39:44;;;;;;;17.97;16.43;;;;;;;10.91;92.65;98758.97;5022645;28;20211;-56
2022/04/23 01:42:09;;;;;;;19.87;17.87;;;;;;;10.88;92.65;98759.91;5024721;28;20611;-56
2022/04/23 01:44:35;;;;;;;18.63;16.93;;;;;;;10.86;92.79;98771.25;5027472;28;20271;-57
2022/04/23 01:47:00;;;;;;;19.30;17.47;;;;;;;10.81;93.07;98774.81;5027756;28;20191;-57
2022/04/23 01:49:25;;;;;;;18.40;16.70;;;;;;;10.88;93.16;98778.03;5015250;28;20562;-55
2022/04/23 01:51:51;;;;;;;18.57;16.83;;;;;;;10.86;93.27;98766.88;5023690;28;20195;-57
2022/04/23 01:54:16;;;;;;;18.60;16.90;;;;;;;10.74;93.60;98770.72;5023514;28;20274;-56
2022/04/23 01:56:41;;;;;;;19.03;17.23;;;;;;;10.76;93.73;98776.72;5026851;28;20285;-56
2022/04/23 01:59:07;;;;;;;18.33;16.80;;;;;;;10.66;94.47;98775.34;5021468;28;20189;-57
2022/04/23 02:01:32;;;;;;;19.33;17.63;;;;;;;10.63;94.31;98783.19;5029673;28;20202;-58
2022/04/23 02:03:59;;;;;;;18.47;16.87;;;;;;;10.64;94.66;98785.75;5027375;28;20660;-57
2022/04/23 02:06:24;;;;;;;19.53;17.83;;;;;;;10.67;94.44;98789.97;5026449;28;20188;-57
2022/04/23 02:08:49;;;;;;;19.53;17.83;;;;;;;10.63;94.82;98778.03;5023094;28;20208;-57
2022/04/23 02:11:15;;;;;;;19.50;17.70;;;;;;;10.57;95.12;98780.84;5020953;28;20209;-56
2022/04/23 02:13:40;;;;;;;18.77;17.07;;;;;;;10.48;95.49;98780.22;5032295;28;20556;-57
2022/04/23 02:16:06;;;;;;;20.90;19.00;;;;;;;10.42;96.32;98787.34;5026787;28;20204;-57
2022/04/23 02:18:32;;;;;;;20.73;18.90;;;;;;;10.34;97.01;98777.22;5027450;28;20219;-58
2022/04/23 02:20:58;;;;;;;21.27;19.13;;;;;;;10.25;97.24;98788.69;5018329;28;20200;-58
2022/04/23 02:23:23;;;;;;;21.03;19.03;;;;;;;10.21;97.85;98795.69;5030302;28;20191;-57
2022/04/23 02:25:49;;;;;;;21.10;19.33;;;;;;;10.16;98.34;98789.81;5015371;28;20199;-57
2022/04/23 02:28:14;;;;;;;21.27;19.37;;;;;;;10.13;98.33;98789.94;5016387;28;20723;-57
2022/04/23 02:30:42;;;;;;;20.83;18.70;;;;;;;10.11;97.86;98794.31;5017509;28;20220;-56
2022/04/23 02:33:08;;;;;;;21.80;19.77;;;;;;;10.09;98.63;98800.41;5026751;28;20188;-57
2022/04/23 02:35:34;;;;;;;22.80;20.57;;;;;;;10.04;99.10;98803.13;5029719;28;20202;-57
2022/04/23 02:38:01;;;;;;;20.90;19.00;;;;;;;9.97;99.42;98799.06;5029272;28;20198;-57
2022/04/23 02:40:28;;;;;;;20.63;18.77;;;;;;;9.93;99.29;98793.13;5025410;28;20210;-62
2022/04/23 02:42:54;;;;;;;21.27;19.37;;;;;;;9.86;99.66;98797.63;5026073;28;20667;-58
2022/04/23 02:45:20;;;;;;;20.60;18.67;;;;;;;9.91;99.30;98806.09;5024586;28;20195;-57
2022/04/23 02:47:53;;;;;;;20.07;18.37;;;;;;;10.02;98.80;98804.91;5023083;28;20558;-58
2022/04/23 02:50:30;;;;;;;20.93;19.13;;;;;;;9.97;98.91;98794.72;5019186;28;20204;-57
2022/04/23 02:52:57;;;;;;;21.53;19.53;;;;;;;9.96;98.81;98795.63;5028986;28;20203;-57
2022/04/23 02:55:27;;;;;;;20.23;18.17;;;;;;;9.95;98.93;98788.75;5022586;28;20194;-58
2022/04/23 02:57:53;;;;;;;21.90;19.60;;;;;;;9.91;99.25;98797.47;5016917;28;20184;-57
2022/04/23 03:00:19;;;;;;;22.43;20.33;;;;;;;9.81;99.77;98789.19;5022028;28;20215;-57
2022/04/23 03:02:47;;;;;;;22.80;20.60;;;;;;;9.74;100.00;98787.66;5028175;28;20321;-56
2022/04/23 03:05:16;;;;;;;22.50;20.40;;;;;;;9.70;100.00;98788.63;5028170;28;20249;-57
2022/04/23 03:07:43;;;;;;;21.00;19.10;;;;;;;9.64;100.00;98786.25;5020998;28;20187;-57
2022/04/23 03:10:11;;;;;;;22.40;20.30;;;;;;;9.59;100.00;98781.22;5022561;28;20385;-56
2022/04/23 03:12:36;;;;;;;22.70;20.43;;;;;;;9.50;100.00;98779.75;5019374;28;20184;-57
2022/04/23 03:15:10;;;;;;;23.37;21.27;;;;;;;9.43;100.00;98781.66;5024394;28;20268;-56
2022/04/23 03:17:36;;;;;;;22.90;20.80;;;;;;;9.38;100.00;98778.34;5029377;28;20192;-56
2022/04/23 03:20:04;;;;;;;23.70;21.57;;;;;;;9.36;100.00;98771.56;5024886;28;20197;-57
2022/04/23 03:22:29;;;;;;;23.07;20.97;;;;;;;9.34;100.00;98783.66;5019648;28;20223;-58
2022/04/23 03:24:55;;;;;;;22.80;20.70;;;;;;;9.29;100.00;98791.53;5023965;28;20210;-57
2022/04/23 03:27:20;;;;;;;23.67;21.47;;;;;;;9.33;100.00;98790.53;5024351;28;20552;-56
2022/04/23 03:29:45;;;;;;;23.37;21.27;;;;;;;9.34;100.00;98794.00;5021760;28;20208;-57
2022/04/23 03:32:11;;;;;;;22.73;20.77;;;;;;;9.30;100.00;98788.91;5022534;28;20180;-57
2022/04/23 03:34:37;;;;;;;22.13;20.00;;;;;;;9.33;100.00;98787.13;5022298;28;20187;-56
2022/04/23 03:37:05;;;;;;;22.70;20.50;;;;;;;9.35;100.00;98787.94;5027381;28;20186;-58
2022/04/23 03:39:31;;;;;;;22.63;20.70;;;;;;;9.37;100.00;98783.59;5023914;28;20252;-57
2022/04/23 03:41:56;;;;;;;22.63;20.63;;;;;;;9.27;100.00;98788.16;5015337;28;20187;-57
2022/04/23 03:44:22;;;;;;;21.53;19.40;;;;;;;9.23;100.00;98797.69;5022456;28;20542;-57
2022/04/23 03:46:47;;;;;;;23.20;21.07;;;;;;;9.24;100.00;98790.81;5025661;28;20234;-55
2022/04/23 03:49:12;;;;;;;22.43;20.50;;;;;;;9.21;100.00;98790.88;5021060;28;20223;-59
2022/04/23 03:51:38;;;;;;;22.73;20.63;;;;;;;9.18;100.00;98797.00;5014908;28;20196;-57
2022/04/23 03:54:03;;;;;;;22.87;20.87;;;;;;;9.16;100.00;98796.19;5022578;28;20285;-56
2022/04/23 03:56:28;;;;;;;23.37;21.17;;;;;;;9.16;100.00;98791.03;5021655;28;20225;-58
2022/04/23 03:58:55;;;;;;;21.87;19.97;;;;;;;9.13;100.00;98798.84;5026876;28;20649;-56
2022/04/23 04:01:20;;;;;;;22.60;20.50;;;;;;;9.12;100.00;98781.66;5015687;28;20225;-58
2022/04/23 04:03:45;;;;;;;22.17;19.97;;;;;;;9.13;100.00;98775.59;5023104;28;20282;-60
2022/04/23 04:06:11;;;;;;;22.93;20.73;;;;;;;9.09;100.00;98780.00;5028769;28;20647;-58
2022/04/23 04:08:36;;;;;;;22.43;20.47;;;;;;;9.06;100.00;98777.50;5024754;28;20612;-59
2022/04/23 04:11:01;;;;;;;23.97;21.77;;;;;;;9.02;100.00;98777.66;5021095;28;20237;-58
2022/04/23 04:13:28;;;;;;;22.90;20.70;;;;;;;9.00;100.00;98775.09;5022336;28;20198;-58
2022/04/23 04:15:54;;;;;;;21.87;19.87;;;;;;;8.98;100.00;98777.72;5027880;28;20660;-57
2022/04/23 04:18:20;;;;;;;22.37;20.37;;;;;;;8.94;100.00;98775.28;5024608;28;20194;-56
2022/04/23 04:20:48;;;;;;;21.17;19.07;;;;;;;8.94;100.00;98773.53;5021497;28;20213;-57
2022/04/23 04:23:14;;;;;;;22.77;20.77;;;;;;;8.94;100.00;98775.28;5027407;28;20184;-57
2022/04/23 04:25:40;;;;;;;22.90;20.80;;;;;;;8.90;100.00;98786.53;5020799;28;20318;-59
2022/04/23 04:28:06;;;;;;;20.70;18.73;;;;;;;8.90;100.00;98774.50;5024282;28;20305;-58
2022/04/23 04:31:46;;;;;;;21.90;19.90;;;;;;;8.89;100.00;98782.28;5025074;28;20893;-58
2022/04/23 04:33:16;;;;;;;22.43;20.13;;;;;;;8.91;100.00;98776.22;5015567;28;20200;-56
2022/04/23 04:35:41;;;;;;;24.57;20.37;;;;;;;8.96;100.00;98770.91;5027489;28;20651;-57
2022/04/23 04:38:07;;;;;;;22.17;20.17;;;;;;;8.90;100.00;98776.22;5020795;28;20560;-58
2022/04/23 04:40:33;;;;;;;22.53;20.43;;;;;;;8.90;100.00;98761.63;5019554;28;20570;-58
2022/04/23 04:42:58;;;;;;;21.00;19.13;;;;;;;8.95;100.00;98779.53;5019983;28;20182;-57
2022/04/23 04:45:23;;;;;;;21.40;19.53;;;;;;;9.03;100.00;98767.28;5021406;28;20276;-56
2022/04/23 04:47:49;;;;;;;22.37;20.27;;;;;;;9.15;100.00;98779.00;5013451;28;20277;-59
2022/04/23 04:50:14;;;;;;;21.03;19.10;;;;;;;9.20;100.00;98777.16;5025636;28;20204;-58
2022/04/23 04:52:40;;;;;;;20.43;18.53;;;;;;;9.29;100.00;98773.47;5023398;28;20221;-57
2022/04/23 04:55:06;;;;;;;21.23;19.13;;;;;;;9.42;100.00;98776.53;5029374;28;20212;-57
2022/04/23 04:57:31;;;;;;;20.70;18.93;;;;;;;9.58;100.00;98779.53;5025518;28;20188;-58
2022/04/23 04:59:57;;;;;;;21.33;19.43;;;;;;;9.61;100.00;98779.41;5023816;28;22331;-56
2022/04/23 05:02:22;;;;;;;21.33;19.43;;;;;;;9.66;100.00;98779.31;5023197;28;20191;-56
2022/04/23 05:04:47;;;;;;;22.80;19.47;;;;;;;9.69;100.00;98800.72;5014138;28;20188;-57
2022/04/23 05:07:12;;;;;;;21.47;19.57;;;;;;;9.76;100.00;98802.22;5015947;28;20250;-58
2022/04/23 05:09:38;;;;;;;21.27;19.20;;;;;;;9.83;100.00;98804.63;5024250;28;20319;-57
2022/04/23 05:12:04;;;;;;;19.50;17.80;;;;;;;9.87;100.00;98804.50;5024717;28;20743;-58
2022/04/23 05:14:29;;;;;;;21.40;19.53;;;;;;;9.91;100.00;98800.94;5023391;28;20198;-57
2022/04/23 05:16:54;;;;;;;20.03;18.33;;;;;;;9.94;100.00;98783.63;5020934;28;20211;-57
2022/04/23 05:19:20;;;;;;;20.67;18.70;;;;;;;10.01;100.00;98796.31;5028960;28;20641;-56
2022/04/23 05:21:45;;;;;;;21.23;19.43;;;;;;;10.06;100.00;98798.78;5018317;28;20572;-57
2022/04/23 05:24:10;;;;;;;19.40;17.60;;;;;;;10.13;100.00;98802.88;5024361;28;20202;-58
2022/04/23 05:26:36;;;;;;;19.67;17.97;;;;;;;10.25;100.00;98796.44;5024422;28;20235;-56
2022/04/23 05:29:02;;;;;;;19.13;17.27;;;;;;;10.57;100.00;98796.34;5026676;28;20210;-57
2022/04/23 05:31:28;;;;;;;18.10;16.40;;;;;;;10.79;100.00;98801.66;5002058;28;20220;-58
2022/04/23 05:33:54;;;;;;;18.13;16.53;;;;;;;11.01;99.74;98803.50;5020707;28;20276;-57
2022/04/23 05:36:20;;;;;;;18.73;17.13;;;;;;;11.07;99.31;98798.94;5022809;28;20187;-59
2022/04/23 05:38:45;;;;;;;18.87;17.17;;;;;;;10.94;99.43;98792.50;5023445;28;20199;-58
2022/04/23 05:41:11;;;;;;;17.67;15.87;;;;;;;11.06;98.97;98805.00;5025617;28;20199;-59
2022/04/23 05:43:36;;;;;;;17.40;16.00;;;;;;;11.02;99.24;98798.28;5022948;28;20266;-58
2022/04/23 05:46:02;;;;;;;17.70;16.13;;;;;;;11.03;99.37;98812.06;5028062;28;20595;-58
2022/04/23 05:48:27;;;;;;;17.50;16.00;;;;;;;11.10;99.10;98823.91;5021604;28;20616;-57
2022/04/23 05:50:53;;;;;;;16.00;14.70;;;;;;;11.09;98.86;98822.22;5027996;28;20298;-59
2022/04/23 05:53:18;;;;;;;17.60;16.10;;;;;;;10.98;99.36;98814.81;5031910;28;20183;-58
2022/04/23 05:55:44;;;;;;;18.10;16.40;;;;;;;11.01;99.51;98822.47;5025595;28;20198;-59
2022/04/23 05:58:09;;;;;;;17.67;16.07;;;;;;;11.07;98.97;98834.34;5021439;28;20216;-58
2022/04/23 06:00:34;;;;;;;16.70;15.23;;;;;;;11.00;99.11;98822.50;5025325;28;20676;-58
2022/04/23 06:03:00;;;;;;;16.73;15.33;;;;;;;11.02;98.50;98849.19;5022618;28;20267;-58
2022/04/23 06:05:25;;;;;;;17.87;16.27;;;;;;;11.03;99.24;98827.59;5022061;28;20203;-58
2022/04/23 06:07:51;;;;;;;16.57;15.17;;;;;;;11.16;98.66;98833.19;5029383;28;20275;-58
2022/04/23 06:10:16;;;;;;;15.23;14.00;;;;;;;11.31;97.95;98834.38;5029150;28;20209;-60
2022/04/23 06:12:42;;;;;;;15.90;14.63;;;;;;;11.57;96.88;98836.06;5026030;28;20685;-60
2022/04/23 06:15:07;;;;;;;16.20;14.70;;;;;;;11.63;96.66;98829.78;5020594;28;20180;-58
2022/04/23 06:17:33;;;;;;;15.33;13.97;;;;;;;11.83;95.64;98840.28;5023993;28;20187;-58
2022/04/23 06:19:59;;;;;;;16.07;14.77;;;;;;;11.92;95.18;98843.41;5028938;28;20225;-59
2022/04/23 06:22:25;;;;;;;15.50;13.97;;;;;;;12.11;94.94;98847.03;5029459;28;20650;-57
2022/04/23 06:24:56;;;;;;;14.47;13.27;;;;;;;12.11;94.81;98853.97;5021705;28;20195;-57
2022/04/23 06:27:22;;;;;;;15.03;13.83;;;;;;;12.08;94.72;98874.84;5014184;28;20269;-58
2022/04/23 06:29:49;;;;;;;14.50;13.20;;;;;;;12.49;93.17;98854.22;5020892;28;20328;-58
2022/04/23 06:32:14;;;;;;;14.97;13.70;;;;;;;12.49;92.65;98862.00;5014452;28;20929;-59
2022/04/23 06:34:40;;;;;;;14.73;13.50;;;;;;;12.79;92.21;98874.66;5019754;28;20200;-58
2022/04/23 06:37:06;;;;;;;14.37;13.27;;;;;;;13.31;90.30;98868.19;5026393;28;20603;-58
2022/04/23 06:39:32;;;;;;;14.40;13.20;;;;;;;13.32;89.40;98867.25;5030715;28;20208;-59
2022/04/23 06:41:58;;;;;;;14.87;13.07;;;;;;;13.49;88.80;98866.56;5027714;28;20589;-57
2022/04/23 06:44:23;;;;;;;14.20;12.93;;;;;;;13.63;88.25;98859.00;5024646;28;20192;-57
2022/04/23 06:46:48;;;;;;;13.50;12.40;;;;;;;13.87;87.14;98874.41;5026676;28;20216;-58
2022/04/23 06:49:14;;;;;;;13.43;12.37;;;;;;;13.81;87.50;98870.34;5022649;28;20693;-57
2022/04/23 06:51:40;;;;;;;14.33;12.53;;;;;;;13.67;87.21;98870.09;5028247;28;20598;-57
2022/04/23 06:54:10;;;;;;;13.60;12.40;;;;;;;13.75;87.39;98877.56;5022113;28;20262;-58
2022/04/23 06:56:37;;;;;;;13.20;12.20;;;;;;;13.94;86.97;98873.22;5024113;28;20275;-57
2022/04/23 06:59:02;;;;;;;13.03;12.03;;;;;;;14.27;86.70;98879.53;5013775;28;20188;-58
2022/04/23 07:01:28;;;;;;;12.03;11.10;;;;;;;14.57;85.38;98884.19;5015462;28;20243;-58
2022/04/23 07:03:53;;;;;;;13.50;12.40;;;;;;;14.59;85.24;98874.56;5018361;28;20185;-57
2022/04/23 07:06:18;;;;;;;12.73;11.63;;;;;;;14.70;84.45;98885.31;5013408;28;20964;-58
2022/04/23 07:08:44;;;;;;;13.07;12.07;;;;;;;14.54;84.36;98911.22;5017398;28;20260;-57
2022/04/23 07:11:13;;;;;;;12.83;11.73;;;;;;;15.24;82.79;98872.22;5016356;28;20206;-55
2022/04/23 07:13:38;;;;;;;13.40;12.30;;;;;;;15.28;81.70;98872.09;5016461;28;20198;-57
2022/04/23 07:16:09;;;;;;;12.70;11.70;;;;;;;15.41;81.45;98874.91;5021552;28;20243;-57
2022/04/23 07:18:35;;;;;;;13.47;12.27;;;;;;;14.80;83.21;98874.47;5018117;28;20238;-58
2022/04/23 07:21:00;;;;;;;13.57;12.27;;;;;;;14.77;84.21;98875.44;5025314;28;20681;-56
2022/04/23 07:26:11;;;;;;;12.80;11.60;;;;;;;14.80;83.97;98867.50;5021985;28;20207;-59
2022/04/23 07:28:37;;;;;;;11.97;10.97;;;;;;;14.68;84.47;98868.94;5016845;28;20335;-56
2022/04/23 07:31:03;;;;;;;12.40;11.33;;;;;;;14.62;84.59;98869.22;5016471;28;20688;-58
2022/04/23 07:38:56;;;;;;;12.67;11.47;;;;;;;14.24;85.81;98877.06;5011404;28;20202;-57
2022/04/23 07:41:22;;;;;;;12.63;11.63;;;;;;;14.30;85.92;98864.63;5014104;28;20215;-57
2022/04/23 07:43:47;;;;;;;12.33;11.33;;;;;;;14.38;85.48;98866.84;5015216;28;20277;-56
2022/04/23 07:46:12;;;;;;;12.20;11.20;;;;;;;14.60;85.51;98864.06;5015636;28;20213;-56
2022/04/23 07:48:38;;;;;;;12.30;11.40;;;;;;;14.59;84.69;98878.03;5012440;28;20351;-55
2022/04/23 07:51:03;;;;;;;12.37;11.27;;;;;;;14.86;84.56;98877.63;5011802;28;20247;-57
2022/04/23 07:53:29;;;;;;;11.73;10.73;;;;;;;14.70;84.47;98869.69;5017636;28;20184;-55
2022/04/23 07:55:54;;;;;;;12.50;11.50;;;;;;;14.92;84.27;98858.25;5016386;28;20217;-55
2022/04/23 07:58:20;;;;;;;12.87;11.87;;;;;;;15.07;83.10;98869.63;5011829;28;20188;-57
2022/04/23 08:00:45;;;;;;;11.87;10.97;;;;;;;14.91;82.83;98893.03;5014772;28;20223;-56
2022/04/23 08:03:10;;;;;;;12.37;11.17;;;;;;;14.73;84.03;98871.34;5022222;28;20634;-57
2022/04/23 08:05:36;;;;;;;12.07;11.07;;;;;;;14.70;83.87;98877.50;5011899;28;20200;-56
2022/04/23 08:08:03;;;;;;;13.80;11.63;;;;;;;14.46;84.15;98880.38;5010083;28;20472;-57
2022/04/23 08:10:29;;;;;;;13.10;11.90;;;;;;;14.29;84.62;98881.13;5015245;28;20229;-57
2022/04/23 08:12:55;;;;;;;12.77;11.77;;;;;;;14.48;84.61;98877.69;5018707;28;20196;-56
2022/04/23 08:15:21;;;;;;;13.03;12.00;;;;;;;14.39;84.32;98894.56;5010611;28;20182;-56
2022/04/23 08:17:47;;;;;;;12.17;11.27;;;;;;;14.40;84.66;98878.03;5009032;28;20196;-55
2022/04/23 08:20:13;;;;;;;11.93;10.93;;;;;;;14.54;84.35;98877.38;5022134;28;20692;-56
2022/04/23 08:22:39;;;;;;;11.47;10.57;;;;;;;14.71;83.92;98871.38;5022395;28;20194;-56
2022/04/23 08:25:05;;;;;;;12.07;10.97;;;;;;;14.66;83.40;98882.91;5026613;28;20268;-57
2022/04/23 08:27:30;;;;;;;12.77;11.77;;;;;;;14.47;83.82;98889.84;5014378;28;20337;-55
2022/04/23 08:32:40;;;;;;;11.97;10.97;;;;;;;14.62;84.04;98890.03;5012639;28;20791;-58
2022/04/23 08:35:06;;;;;;;11.90;10.90;;;;;;;14.71;83.59;98888.78;5014521;28;20275;-56
2022/04/23 08:37:32;;;;;;;12.10;11.20;;;;;;;14.84;82.97;98896.81;5012726;28;20312;-56
2022/04/23 08:39:58;;;;;;;10.33;9.53;;;;;;;15.28;82.59;98887.72;5012550;28;20215;-57
2022/04/23 08:42:23;;;;;;;11.33;10.27;;;;;;;15.32;81.58;98889.25;5017427;28;20184;-56
2022/04/23 08:44:52;;;;;;;9.87;9.03;;;;;;;15.64;81.57;98895.41;5018955;28;20187;-57
2022/04/23 08:47:19;;;;;;;10.97;10.07;;;;;;;15.57;80.31;98901.88;5009856;28;20196;-57
2022/04/23 08:49:49;;;;;;;10.80;9.70;;;;;;;15.53;81.11;98887.31;5010374;28;20725;-53
2022/04/23 08:52:16;;;;;;;10.40;9.47;;;;;;;15.30;81.43;98896.31;5014340;28;20700;-56
2022/04/23 08:54:42;;;;;;;10.10;9.30;;;;;;;14.94;82.66;98892.88;5015370;28;20250;-57
2022/04/23 08:57:08;;;;;;;9.80;8.93;;;;;;;15.19;81.65;98883.81;5012057;28;20195;-56
2022/04/23 08:59:36;;;;;;;8.37;7.67;;;;;;;15.52;81.58;98891.66;5014069;28;20196;-56
2022/04/23 09:02:02;;;;;;;8.90;8.10;;;;;;;15.67;80.03;98884.81;5010986;28;20216;-57
2022/04/23 09:04:28;;;;;;;9.87;8.93;;;;;;;15.52;79.96;98873.41;5010162;28;20688;-56
2022/04/23 09:06:54;;;;;;;8.70;7.90;;;;;;;15.22;80.39;98873.25;5014886;28;20193;-55
2022/04/23 09:09:21;;;;;;;8.67;7.97;;;;;;;15.41;79.69;98888.78;5022226;28;20210;-56
2022/04/23 09:11:57;;;;;;;8.30;7.60;;;;;;;15.74;79.36;98871.44;5014352;28;20838;-55
2022/04/23 09:14:32;;;;;;;8.27;7.67;;;;;;;15.66;79.14;98883.13;5014487;28;20183;-56
2022/04/23 09:25:17;;;;;;;6.53;5.93;;;;;;;16.98;76.56;98878.59;5028125;28;20201;-56
2022/04/23 09:27:43;;;;;;;6.00;5.50;;;;;;;17.06;75.35;98883.38;5013714;28;20242;-57
2022/04/23 09:30:10;;;;;;;6.47;5.97;;;;;;;17.20;75.30;98874.72;5011183;28;20240;-56
2022/04/23 09:32:36;;;;;;;5.53;5.13;;;;;;;17.48;74.08;98873.91;5014336;28;20216;-55
2022/04/23 09:35:05;;;;;;;6.20;5.70;;;;;;;16.88;73.37;98880.88;5015653;28;20190;-56
2022/04/23 09:40:22;;;;;;;6.67;6.00;;;;;;;16.77;74.63;98880.66;5013098;28;20250;-57
2022/04/23 09:43:01;;;;;;;5.60;5.10;;;;;;;17.11;74.35;98875.25;5019540;28;20238;-55
2022/04/23 09:45:28;;;;;;;5.53;5.03;;;;;;;17.34;73.68;98879.13;5013875;28;20564;-56
2022/04/23 09:48:03;;;;;;;6.90;5.53;;;;;;;17.55;72.74;98876.13;5013434;28;20188;-56
2022/04/23 09:50:36;;;;;;;5.77;5.37;;;;;;;17.63;72.87;98866.06;5012685;28;20304;-56
2022/04/23 09:53:16;;;;;;;7.13;6.53;;;;;;;17.32;72.48;98886.22;5013014;28;21152;-57
2022/04/23 09:55:42;;;;;;;6.10;5.70;;;;;;;16.78;75.02;98882.34;5010371;28;20201;-57
2022/04/23 09:58:12;;;;;;;5.27;4.87;;;;;;;17.45;74.08;98892.41;5024133;28;20238;-56
2022/04/23 10:00:43;;;;;;;9.47;6.57;;;;;;;17.15;74.60;98884.63;5025982;28;20281;-57
2022/04/23 10:03:10;;;;;;;6.67;6.07;;;;;;;16.80;74.38;98884.84;5024217;28;20185;-55
2022/04/23 10:05:40;;;;;;;5.97;5.27;;;;;;;16.91;75.76;98885.91;5013205;28;20267;-56
2022/04/23 10:08:12;;;;;;;6.07;5.47;;;;;;;17.05;74.40;98902.59;5016462;28;20197;-56
2022/04/23 10:10:42;;;;;;;5.90;5.40;;;;;;;16.51;75.30;98869.88;5015514;28;20759;-56
2022/04/23 10:13:10;;;;;;;5.47;5.07;;;;;;;16.48;76.87;98892.72;5018529;28;20193;-55
2022/04/23 10:15:37;;;;;;;8.20;5.87;;;;;;;16.71;75.46;98884.44;5015671;28;20947;-56
2022/04/23 10:18:07;;;;;;;5.20;4.80;;;;;;;16.77;75.61;98876.25;5009491;28;20182;-55
2022/04/23 10:20:33;;;;;;;5.33;4.93;;;;;;;16.39;76.49;98881.03;5013389;28;20245;-55
2022/04/23 10:23:16;;;;;;;5.60;5.10;;;;;;;16.60;76.16;98873.75;5027508;28;20222;-56
2022/04/23 10:26:20;;;;;;;6.00;5.50;;;;;;;16.44;75.55;98874.63;5015482;28;20248;-56
2022/04/23 10:28:47;;;;;;;5.70;5.10;;;;;;;16.50;75.67;98873.44;5018711;28;20208;-56
2022/04/23 10:31:15;;;;;;;5.93;5.43;;;;;;;16.39;76.06;98876.66;5024136;28;20219;-55
2022/04/23 10:33:50;;;;;;;5.40;5.00;;;;;;;16.36;76.49;98883.81;5022606;28;20193;-56
2022/04/23 10:36:16;;;;;;;6.50;5.63;;;;;;;16.48;76.27;98879.69;5015191;28;20661;-56
2022/04/23 10:38:44;;;;;;;5.30;4.80;;;;;;;16.53;74.71;98877.66;5007673;28;20189;-56
2022/04/23 10:41:14;;;;;;;5.43;4.93;;;;;;;16.61;75.32;98873.69;5013687;28;20281;-56
2022/04/23 10:43:55;;;;;;;5.40;4.70;;;;;;;16.70;75.45;98871.47;5015057;28;20184;-55
2022/04/23 10:46:41;;;;;;;6.47;5.97;;;;;;;16.51;75.03;98871.69;5012664;28;20198;-56
2022/04/23 10:49:17;;;;;;;5.40;4.90;;;;;;;16.27;75.81;98866.88;5010585;28;20215;-55
2022/04/23 10:51:52;;;;;;;6.23;5.10;;;;;;;16.19;76.08;98869.09;5026410;28;20272;-55
2022/04/23 10:54:21;;;;;;;5.80;5.30;;;;;;;16.22;76.18;98882.78;5016926;28;20179;-54
2022/04/23 10:56:53;;;;;;;5.03;4.57;;;;;;;16.12;76.37;98879.84;5015487;28;20195;-55
2022/04/23 10:59:45;;;;;;;5.97;5.33;;;;;;;16.26;75.95;98858.22;5015816;28;20184;-55
2022/04/23 11:02:19;;;;;;;5.43;4.90;;;;;;;16.30;76.00;98861.50;5011917;28;20219;-55
2022/04/23 11:13:23;;;;;;;6.30;5.70;;;;;;;16.53;75.73;98875.88;5014064;28;20302;-54
2022/04/23 11:16:22;;;;;;;7.60;5.80;;;;;;;16.35;75.63;98856.88;5015342;28;20248;-55
2022/04/23 11:18:55;;;;;;;5.47;5.00;;;;;;;16.44;75.60;98850.28;5005442;28;20212;-55
2022/04/23 11:21:26;;;;;;;7.47;5.23;;;;;;;16.30;75.57;98849.31;5014216;28;20214;-55
2022/04/23 11:23:53;;;;;;;10.70;6.20;;;;;;;16.32;75.49;98858.81;5010505;28;20649;-55
2022/04/23 11:26:26;;;;;;;6.43;5.93;;;;;;;16.18;75.20;98862.19;5023423;28;20198;-55
2022/04/23 11:28:59;;;;;;;5.83;5.27;;;;;;;16.15;75.96;98852.75;5018084;28;20212;-56
2022/04/23 11:31:25;;;;;;;6.20;5.70;;;;;;;16.48;75.83;98853.56;5016466;28;20211;-56
2022/04/23 11:33:53;;;;;;;5.53;5.13;;;;;;;16.84;74.94;98834.09;5017590;28;20198;-55
2022/04/23 11:36:19;;;;;;;10.90;6.03;;;;;;;16.92;73.94;98827.50;5009296;28;20200;-54
2022/04/23 11:38:45;;;;;;;6.00;5.40;;;;;;;16.70;73.82;98863.63;5015965;28;20569;-57
2022/04/23 11:41:24;;;;;;;6.67;5.90;;;;;;;16.46;74.87;98835.38;5009691;28;20209;-56
2022/04/23 11:43:49;;;;;;;5.87;5.37;;;;;;;16.63;74.45;98837.03;5009997;28;20231;-55
2022/04/23 11:46:15;;;;;;;9.43;5.70;;;;;;;16.60;74.15;98831.97;5006547;28;21554;-55
2022/04/23 11:48:46;;;;;;;5.90;5.33;;;;;;;16.54;74.43;98837.56;5008737;28;20696;-55
2022/04/23 11:51:12;;;;;;;7.40;5.20;;;;;;;16.77;75.35;98829.22;5011369;28;20220;-55
2022/04/23 11:54:00;;;;;;;15.67;6.53;;;;;;;16.88;72.93;98840.81;5007877;28;20194;-55